Elizabeth, Colorado
Current Conditions -  °F | °C
As of 8:15 AM on Monday 24 Nov 2014 (Local Time) from KMNH Reporting Station
Broken Clouds Broken Clouds  
Wind Chill: 17°   Ceiling: 10000
Heat Index: 28°   Visibility: 10mi
Dew Point: 12°   Wind: 16mph
Humidity: 51%   Direction: 280°W
Pressure: 29.89"   Gusts: 20mph
Location:  39.36°N, 104.6°W
Report Text: KMNH 241515Z AUTO 28014G17KT 10SM SCT070 BKN100 M02/M11 A2989 RMK AO2
Loading
Personal Weather Stations






























Interactive Weather Map New forecast layout! Learn more

10-Day Weather Forecast

Advertisements
Track Severe Weather on mobile